Mount Saint Joseph, Ohio
Current Conditions -  °F | °C
As of 11:56 AM on Tuesday 27 Jan 2015 (Local Time) from KI69 Reporting Station
Clear Clear  
Wind Chill: 20°   Ceiling: Unl
Heat Index: 27°   Visibility: 10mi
Dew Point: 16°   Wind: 6mph
Humidity: 64%   Direction: 40°NE
Pressure: 30.08"   Gusts: NA
Location:  39.1°N, 84.65°W
Report Text: KI69 271656Z AUTO 04005KT 10SM CLR M03/M09 A3008 RMK AO1
Loading
Personal Weather Stations






























Interactive Weather Map New forecast layout! Learn more

10-Day Weather Forecast

Advertisements
Track Severe Weather on mobile